Aviation Digital Data Service (ADDS)

Output produced by METARs form (0447 UTC 19 February 2019)
found at http://www.aviationweather.gov/metar/data/
 
METAR text: UTAA 190400Z 29018KT 9999 -SHRA FEW031CB OVC031 05/02 Q1010 R88/70D NOSIG
Conditions at: UTAA (ASHGABAT , TM) observed 0400 UTC 19 February 2019
Temperature: 5.0°C (41°F)
Dewpoint: 2.0°C (36°F) [RH = 81%]
Pressure (altimeter): 29.82 inches Hg (1010.0 mb)
Winds: from the WNW (290 degrees) at 21 MPH (18 knots; 9.3 m/s)
Visibility: 6 or more miles (10+ km)
Ceiling: 3100 feet AGL
Clouds: few clouds at 3100 feet AGL
overcast cloud deck at 3100 feet AGL
Weather: -SHRA  (light rain showers)

METAR text: UTAA 190300Z 29022KT 9999 FEW020CB OVC020 05/02 Q1009 R88/CLRD70 NOSIG
Conditions at: UTAA (ASHGABAT , TM) observed 0300 UTC 19 February 2019
Temperature: 5.0°C (41°F)
Dewpoint: 2.0°C (36°F) [RH = 81%]
Pressure (altimeter): 29.79 inches Hg (1009.0 mb)
Winds: from the WNW (290 degrees) at 25 MPH (22 knots; 11.3 m/s)
Visibility: 6 or more miles (10+ km)
Ceiling: 2000 feet AGL
Clouds: few clouds at 2000 feet AGL
overcast cloud deck at 2000 feet AGL
Weather: no significant weather observed at this time

METAR text: UTAA 190200Z 29024KT 9999 BKN099 06/04 Q1007 R88/70D NOSIG
Conditions at: UTAA (ASHGABAT , TM) observed 0200 UTC 19 February 2019
Temperature: 6.0°C (43°F)
Dewpoint: 4.0°C (39°F) [RH = 87%]
Pressure (altimeter): 29.73 inches Hg (1007.0 mb)
Winds: from the WNW (290 degrees) at 28 MPH (24 knots; 12.3 m/s)
Visibility: 6 or more miles (10+ km)
Ceiling: 9900 feet AGL
Clouds: broken clouds at 9900 feet AGL
Weather: no significant weather observed at this time

METAR text: UTAA 190100Z 28018KT 9999 BKN100 06/02 Q1006 R88/70D NOSIG
Conditions at: UTAA (ASHGABAT , TM) observed 0100 UTC 19 February 2019
Temperature: 6.0°C (43°F)
Dewpoint: 2.0°C (36°F) [RH = 75%]
Pressure (altimeter): 29.70 inches Hg (1006.0 mb)
Winds: from the W (280 degrees) at 21 MPH (18 knots; 9.3 m/s)
Visibility: 6 or more miles (10+ km)
Ceiling: 10000 feet AGL
Clouds: broken clouds at 10000 feet AGL
Weather: no significant weather observed at this time

METAR text: UTAA 190000Z 27006KT 9999 SCT100 05/00 Q1005 R88/70D NOSIG
Conditions at: UTAA (ASHGABAT , TM) observed 0000 UTC 19 February 2019
Temperature: 5.0°C (41°F)
Dewpoint: 0.0°C (32°F) [RH = 70%]
Pressure (altimeter): 29.68 inches Hg (1005.0 mb)
Winds: from the W (270 degrees) at 7 MPH (6 knots; 3.1 m/s)
Visibility: 6 or more miles (10+ km)
Ceiling: at least 12,000 feet AGL
Clouds: scattered clouds at 10000 feet AGL
Weather: no significant weather observed at this time

METAR text: UTAA 182300Z 29004KT 9999 NSC 03/01 Q1005 R88/70D NOSIG
Conditions at: UTAA (ASHGABAT , TM) observed 2300 UTC 18 February 2019
Temperature: 3.0°C (37°F)
Dewpoint: 1.0°C (34°F) [RH = 87%]
Pressure (altimeter): 29.68 inches Hg (1005.0 mb)
Winds: from the WNW (290 degrees) at 5 MPH (4 knots; 2.1 m/s)
Visibility: 6 or more miles (10+ km)
Ceiling: at least 12,000 feet AGL
Clouds: sky clear below 12,000 feet AGL
Weather: no significant weather observed at this time

METAR text: UTAA 182200Z 30004KT 5000 BR NSC 03/02 Q1005 R88/CLRD70 NOSIG
Conditions at: UTAA (ASHGABAT , TM) observed 2200 UTC 18 February 2019
Temperature: 3.0°C (37°F)
Dewpoint: 2.0°C (36°F) [RH = 93%]
Pressure (altimeter): 29.68 inches Hg (1005.0 mb)
Winds: from the WNW (300 degrees) at 5 MPH (4 knots; 2.1 m/s)
Visibility: 3 miles ( 5 km)
Ceiling: at least 12,000 feet AGL
Clouds: sky clear below 12,000 feet AGL
Weather: BR  (mist)

METAR text: UTAA 182100Z 00000KT 6000 NSC 04/03 Q1006 R88/CLRD70 NOSIG
Conditions at: UTAA (ASHGABAT , TM) observed 2100 UTC 18 February 2019
Temperature: 4.0°C (39°F)
Dewpoint: 3.0°C (37°F) [RH = 93%]
Pressure (altimeter): 29.70 inches Hg (1006.0 mb)
Winds: calm
Visibility: 4 miles ( 6 km)
Ceiling: at least 12,000 feet AGL
Clouds: sky clear below 12,000 feet AGL
Weather: no significant weather observed at this time

METAR text: UTAA 182000Z 28004KT 250V310 4100 BR NSC 04/03 Q1006 R88/CLRD70 NOSIG
Conditions at: UTAA (ASHGABAT , TM) observed 2000 UTC 18 February 2019
Temperature: 4.0°C (39°F)
Dewpoint: 3.0°C (37°F) [RH = 93%]
Pressure (altimeter): 29.70 inches Hg (1006.0 mb)
Winds: from the W (280 degrees) at 5 MPH (4 knots; 2.1 m/s)
Visibility: 2.55 miles (4.10 km)
Ceiling: at least 12,000 feet AGL
Clouds: sky clear below 12,000 feet AGL
Weather: BR  (mist)

METAR text: UTAA 181900Z VRB02KT 3600 BR NSC 05/04 Q1006 R88/70D NOSIG
Conditions at: UTAA (ASHGABAT , TM) observed 1900 UTC 18 February 2019
Temperature: 5.0°C (41°F)
Dewpoint: 4.0°C (39°F) [RH = 93%]
Pressure (altimeter): 29.70 inches Hg (1006.0 mb)
Winds: variable direction winds at 2 MPH (2 knots; 1.0 m/s)
Visibility: 2.24 miles (3.60 km)
Ceiling: at least 12,000 feet AGL
Clouds: sky clear below 12,000 feet AGL
Weather: BR  (mist)

METAR text: UTAA 181800Z 10004KT 7000 NSC 06/05 Q1007 R88/70D NOSIG
Conditions at: UTAA (ASHGABAT , TM) observed 1800 UTC 18 February 2019
Temperature: 6.0°C (43°F)
Dewpoint: 5.0°C (41°F) [RH = 93%]
Pressure (altimeter): 29.73 inches Hg (1007.0 mb)
Winds: from the E (100 degrees) at 5 MPH (4 knots; 2.1 m/s)
Visibility: 4 miles ( 7 km)
Ceiling: at least 12,000 feet AGL
Clouds: sky clear below 12,000 feet AGL
Weather: no significant weather observed at this time

METAR text: UTAA 181700Z 09006KT 7000 NSC 06/05 Q1007 R88/CLRD70 NOSIG
Conditions at: UTAA (ASHGABAT , TM) observed 1700 UTC 18 February 2019
Temperature: 6.0°C (43°F)
Dewpoint: 5.0°C (41°F) [RH = 93%]
Pressure (altimeter): 29.73 inches Hg (1007.0 mb)
Winds: from the E (90 degrees) at 7 MPH (6 knots; 3.1 m/s)
Visibility: 4 miles ( 7 km)
Ceiling: at least 12,000 feet AGL
Clouds: sky clear below 12,000 feet AGL
Weather: no significant weather observed at this time

METAR text: UTAA 181600Z 12006KT 9000 NSC 07/05 Q1007 R88/CLRD70 NOSIG
Conditions at: UTAA (ASHGABAT , TM) observed 1600 UTC 18 February 2019
Temperature: 7.0°C (45°F)
Dewpoint: 5.0°C (41°F) [RH = 87%]
Pressure (altimeter): 29.73 inches Hg (1007.0 mb)
Winds: from the ESE (120 degrees) at 7 MPH (6 knots; 3.1 m/s)
Visibility: 6 miles ( 9 km)
Ceiling: at least 12,000 feet AGL
Clouds: sky clear below 12,000 feet AGL
Weather: no significant weather observed at this time

METAR text: UTAA 181500Z 12010KT 9999 NSC 07/05 Q1008 R88/70D NOSIG
Conditions at: UTAA (ASHGABAT , TM) observed 1500 UTC 18 February 2019
Temperature: 7.0°C (45°F)
Dewpoint: 5.0°C (41°F) [RH = 87%]
Pressure (altimeter): 29.76 inches Hg (1008.0 mb)
Winds: from the ESE (120 degrees) at 12 MPH (10 knots; 5.1 m/s)
Visibility: 6 or more miles (10+ km)
Ceiling: at least 12,000 feet AGL
Clouds: sky clear below 12,000 feet AGL
Weather: no significant weather observed at this time

METAR text: UTAA 181400Z 11010KT 9999 FEW100 09/05 Q1008 R88/70D NOSIG
Conditions at: UTAA (ASHGABAT , TM) observed 1400 UTC 18 February 2019
Temperature: 9.0°C (48°F)
Dewpoint: 5.0°C (41°F) [RH = 76%]
Pressure (altimeter): 29.76 inches Hg (1008.0 mb)
Winds: from the ESE (110 degrees) at 12 MPH (10 knots; 5.1 m/s)
Visibility: 6 or more miles (10+ km)
Ceiling: at least 12,000 feet AGL
Clouds: few clouds at 10000 feet AGL
Weather: no significant weather observed at this time

METAR text: UTAA 181300Z 12012KT 9999 FEW100 10/04 Q1008 R88/CLRD70 NOSIG
Conditions at: UTAA (ASHGABAT , TM) observed 1300 UTC 18 February 2019
Temperature: 10.0°C (50°F)
Dewpoint: 4.0°C (39°F) [RH = 66%]
Pressure (altimeter): 29.76 inches Hg (1008.0 mb)
Winds: from the ESE (120 degrees) at 14 MPH (12 knots; 6.2 m/s)
Visibility: 6 or more miles (10+ km)
Ceiling: at least 12,000 feet AGL
Clouds: few clouds at 10000 feet AGL
Weather: no significant weather observed at this time

METAR text: UTAA 181200Z 10012KT 9999 FEW033 SCT200 11/03 Q1008 R88/70D NOSIG
Conditions at: UTAA (ASHGABAT , TM) observed 1200 UTC 18 February 2019
Temperature: 11.0°C (52°F)
Dewpoint: 3.0°C (37°F) [RH = 58%]
Pressure (altimeter): 29.76 inches Hg (1008.0 mb)
Winds: from the E (100 degrees) at 14 MPH (12 knots; 6.2 m/s)
Visibility: 6 or more miles (10+ km)
Ceiling: at least 12,000 feet AGL
Clouds: few clouds at 3300 feet AGL
scattered clouds at 20000 feet AGL
Weather: no significant weather observed at this time

METAR text: UTAA 181100Z 11014KT 9999 FEW033 11/02 Q1009 R88/70D NOSIG
Conditions at: UTAA (ASHGABAT , TM) observed 1100 UTC 18 February 2019
Temperature: 11.0°C (52°F)
Dewpoint: 2.0°C (36°F) [RH = 54%]
Pressure (altimeter): 29.79 inches Hg (1009.0 mb)
Winds: from the ESE (110 degrees) at 16 MPH (14 knots; 7.2 m/s)
Visibility: 6 or more miles (10+ km)
Ceiling: at least 12,000 feet AGL
Clouds: few clouds at 3300 feet AGL
Weather: no significant weather observed at this time

METAR text: UTAA 181000Z 13012KT 9999 FEW033 10/03 Q1009 R88/70D NOSIG
Conditions at: UTAA (ASHGABAT , TM) observed 1000 UTC 18 February 2019
Temperature: 10.0°C (50°F)
Dewpoint: 3.0°C (37°F) [RH = 62%]
Pressure (altimeter): 29.79 inches Hg (1009.0 mb)
Winds: from the SE (130 degrees) at 14 MPH (12 knots; 6.2 m/s)
Visibility: 6 or more miles (10+ km)
Ceiling: at least 12,000 feet AGL
Clouds: few clouds at 3300 feet AGL
Weather: no significant weather observed at this time

METAR text: UTAA 180900Z 12012KT 9999 FEW033 SCT100 09/03 Q1011 R88/70D NOSIG
Conditions at: UTAA (ASHGABAT , TM) observed 0900 UTC 18 February 2019
Temperature: 9.0°C (48°F)
Dewpoint: 3.0°C (37°F) [RH = 66%]
Pressure (altimeter): 29.85 inches Hg (1011.0 mb)
Winds: from the ESE (120 degrees) at 14 MPH (12 knots; 6.2 m/s)
Visibility: 6 or more miles (10+ km)
Ceiling: at least 12,000 feet AGL
Clouds: few clouds at 3300 feet AGL
scattered clouds at 10000 feet AGL
Weather: no significant weather observed at this time

METAR text: UTAA 180800Z 12012KT 9999 FEW016 07/04 Q1012 R88/CLRD70 NOSIG
Conditions at: UTAA (ASHGABAT , TM) observed 0800 UTC 18 February 2019
Temperature: 7.0°C (45°F)
Dewpoint: 4.0°C (39°F) [RH = 81%]
Pressure (altimeter): 29.88 inches Hg (1012.0 mb)
Winds: from the ESE (120 degrees) at 14 MPH (12 knots; 6.2 m/s)
Visibility: 6 or more miles (10+ km)
Ceiling: at least 12,000 feet AGL
Clouds: few clouds at 1600 feet AGL
Weather: no significant weather observed at this time

METAR text: UTAA 180700Z 13014KT 9999 BKN015 06/03 Q1013 R88/190065 NOSIG
Conditions at: UTAA (ASHGABAT , TM) observed 0700 UTC 18 February 2019
Temperature: 6.0°C (43°F)
Dewpoint: 3.0°C (37°F) [RH = 81%]
Pressure (altimeter): 29.91 inches Hg (1013.0 mb)
Winds: from the SE (130 degrees) at 16 MPH (14 knots; 7.2 m/s)
Visibility: 6 or more miles (10+ km)
Ceiling: 1500 feet AGL
Clouds: broken clouds at 1500 feet AGL
Weather: no significant weather observed at this time

METAR text: UTAA 180600Z 12014KT 9999 BKN015 06/02 Q1014 R88/190065 NOSIG
Conditions at: UTAA (ASHGABAT , TM) observed 0600 UTC 18 February 2019
Temperature: 6.0°C (43°F)
Dewpoint: 2.0°C (36°F) [RH = 75%]
Pressure (altimeter): 29.94 inches Hg (1014.0 mb)
Winds: from the ESE (120 degrees) at 16 MPH (14 knots; 7.2 m/s)
Visibility: 6 or more miles (10+ km)
Ceiling: 1500 feet AGL
Clouds: broken clouds at 1500 feet AGL
Weather: no significant weather observed at this time

METAR text: UTAA 180500Z 15008KT 9999 OVC009 04/02 Q1015 R88/290055 NOSIG
Conditions at: UTAA (ASHGABAT , TM) observed 0500 UTC 18 February 2019
Temperature: 4.0°C (39°F)
Dewpoint: 2.0°C (36°F) [RH = 87%]
Pressure (altimeter): 29.97 inches Hg (1015.0 mb)
Winds: from the SSE (150 degrees) at 9 MPH (8 knots; 4.1 m/s)
Visibility: 6 or more miles (10+ km)
Ceiling: 900 feet AGL
Clouds: overcast cloud deck at 900 feet AGL
Weather: no significant weather observed at this time

METAR text: UTAA 180400Z 12006KT 9999 OVC010 03/02 Q1014 R88/290055 NOSIG
Conditions at: UTAA (ASHGABAT , TM) observed 0400 UTC 18 February 2019
Temperature: 3.0°C (37°F)
Dewpoint: 2.0°C (36°F) [RH = 93%]
Pressure (altimeter): 29.94 inches Hg (1014.0 mb)
Winds: from the ESE (120 degrees) at 7 MPH (6 knots; 3.1 m/s)
Visibility: 6 or more miles (10+ km)
Ceiling: 1000 feet AGL
Clouds: overcast cloud deck at 1000 feet AGL
Weather: no significant weather observed at this time

METAR text: UTAA 180300Z 14006KT 9999 -RA OVC013 03/02 Q1014 R88/290055 NOSIG
Conditions at: UTAA (ASHGABAT , TM) observed 0300 UTC 18 February 2019
Temperature: 3.0°C (37°F)
Dewpoint: 2.0°C (36°F) [RH = 93%]
Pressure (altimeter): 29.94 inches Hg (1014.0 mb)
Winds: from the SE (140 degrees) at 7 MPH (6 knots; 3.1 m/s)
Visibility: 6 or more miles (10+ km)
Ceiling: 1300 feet AGL
Clouds: overcast cloud deck at 1300 feet AGL
Weather: -RA  (light rain)

METAR text: UTAA 180200Z 08004KT 050V120 9999 -RA OVC005 03/02 Q1014 R88/290055 NOSIG
Conditions at: UTAA (ASHGABAT , TM) observed 0200 UTC 18 February 2019
Temperature: 3.0°C (37°F)
Dewpoint: 2.0°C (36°F) [RH = 93%]
Pressure (altimeter): 29.94 inches Hg (1014.0 mb)
Winds: from the E (80 degrees) at 5 MPH (4 knots; 2.1 m/s)
Visibility: 6 or more miles (10+ km)
Ceiling: 500 feet AGL
Clouds: overcast cloud deck at 500 feet AGL
Weather: -RA  (light rain)

METAR text: UTAA 180100Z 36006KT 320V020 9999 -RA OVC006 03/02 Q1014 R88/290055 NOSIG
Conditions at: UTAA (ASHGABAT , TM) observed 0100 UTC 18 February 2019
Temperature: 3.0°C (37°F)
Dewpoint: 2.0°C (36°F) [RH = 93%]
Pressure (altimeter): 29.94 inches Hg (1014.0 mb)
Winds: from the N (360 degrees) at 7 MPH (6 knots; 3.1 m/s)
Visibility: 6 or more miles (10+ km)
Ceiling: 600 feet AGL
Clouds: overcast cloud deck at 600 feet AGL
Weather: -RA  (light rain)

METAR text: UTAA 180000Z 36004KT 9999 FEW024CB OVC024 04/02 Q1014 R88/290055 NOSIG
Conditions at: UTAA (ASHGABAT , TM) observed 0000 UTC 18 February 2019
Temperature: 4.0°C (39°F)
Dewpoint: 2.0°C (36°F) [RH = 87%]
Pressure (altimeter): 29.94 inches Hg (1014.0 mb)
Winds: from the N (360 degrees) at 5 MPH (4 knots; 2.1 m/s)
Visibility: 6 or more miles (10+ km)
Ceiling: 2400 feet AGL
Clouds: few clouds at 2400 feet AGL
overcast cloud deck at 2400 feet AGL
Weather: no significant weather observed at this time

METAR text: UTAA 172300Z 01006KT 9999 -SHRA FEW020CB OVC020 05/03 Q1014 R88/290055 NOSIG
Conditions at: UTAA (ASHGABAT , TM) observed 2300 UTC 17 February 2019
Temperature: 5.0°C (41°F)
Dewpoint: 3.0°C (37°F) [RH = 87%]
Pressure (altimeter): 29.94 inches Hg (1014.0 mb)
Winds: from the N (10 degrees) at 7 MPH (6 knots; 3.1 m/s)
Visibility: 6 or more miles (10+ km)
Ceiling: 2000 feet AGL
Clouds: few clouds at 2000 feet AGL
overcast cloud deck at 2000 feet AGL
Weather: -SHRA  (light rain showers)

METAR text: UTAA 172200Z 11004KT 9999 -SHRA FEW021CB OVC021 05/04 Q1013 R88/290055 NOSIG
Conditions at: UTAA (ASHGABAT , TM) observed 2200 UTC 17 February 2019
Temperature: 5.0°C (41°F)
Dewpoint: 4.0°C (39°F) [RH = 93%]
Pressure (altimeter): 29.91 inches Hg (1013.0 mb)
Winds: from the ESE (110 degrees) at 5 MPH (4 knots; 2.1 m/s)
Visibility: 6 or more miles (10+ km)
Ceiling: 2100 feet AGL
Clouds: few clouds at 2100 feet AGL
overcast cloud deck at 2100 feet AGL
Weather: -SHRA  (light rain showers)

METAR text: UTAA 172100Z 10004KT 9999 FEW023CB OVC023 05/03 Q1013 R88/290055 NOSIG
Conditions at: UTAA (ASHGABAT , TM) observed 2100 UTC 17 February 2019
Temperature: 5.0°C (41°F)
Dewpoint: 3.0°C (37°F) [RH = 87%]
Pressure (altimeter): 29.91 inches Hg (1013.0 mb)
Winds: from the E (100 degrees) at 5 MPH (4 knots; 2.1 m/s)
Visibility: 6 or more miles (10+ km)
Ceiling: 2300 feet AGL
Clouds: few clouds at 2300 feet AGL
overcast cloud deck at 2300 feet AGL
Weather: no significant weather observed at this time

METAR text: UTAA 172000Z 13002KT 9999 FEW025CB OVC025 05/03 Q1013 R88/290055 TEMPO 1200 BR RA OVC003
Conditions at: UTAA (ASHGABAT , TM) observed 2000 UTC 17 February 2019
Temperature: 5.0°C (41°F)
Dewpoint: 3.0°C (37°F) [RH = 87%]
Pressure (altimeter): 29.91 inches Hg (1013.0 mb)
Winds: from the SE (130 degrees) at 2 MPH (2 knots; 1.0 m/s)
Visibility: 6 or more miles (10+ km)
Ceiling: 2500 feet AGL
Clouds: few clouds at 2500 feet AGL
overcast cloud deck at 2500 feet AGL
Weather: no significant weather observed at this time

METAR text: UTAA 171900Z 05004KT 010V070 9999 -SHRA FEW024CB OVC024 05/03 Q1014 R88/290055 TEMPO 1200 BR RA OVC003
Conditions at: UTAA (ASHGABAT , TM) observed 1900 UTC 17 February 2019
Temperature: 5.0°C (41°F)
Dewpoint: 3.0°C (37°F) [RH = 87%]
Pressure (altimeter): 29.94 inches Hg (1014.0 mb)
Winds: from the NE (50 degrees) at 5 MPH (4 knots; 2.1 m/s)
Visibility: 6 or more miles (10+ km)
Ceiling: 2400 feet AGL
Clouds: few clouds at 2400 feet AGL
overcast cloud deck at 2400 feet AGL
Weather: -SHRA  (light rain showers)

METAR text: UTAA 171800Z 33008KT 7000 -SHRA SCT009 FEW013CB OVC016 05/05 Q1015 R88/290055 NOSIG
Conditions at: UTAA (ASHGABAT , TM) observed 1800 UTC 17 February 2019
Temperature: 5.0°C (41°F)
Dewpoint: 5.0°C (41°F) [RH = 100%]
Pressure (altimeter): 29.97 inches Hg (1015.0 mb)
Winds: from the NNW (330 degrees) at 9 MPH (8 knots; 4.1 m/s)
Visibility: 4 miles ( 7 km)
Ceiling: 1600 feet AGL
Clouds: scattered clouds at 900 feet AGL
few clouds at 1300 feet AGL
overcast cloud deck at 1600 feet AGL
Weather: -SHRA  (light rain showers)

METAR text: UTAA 171700Z 34004KT 9000 -SHRA FEW023CB OVC023 06/04 Q1014 R88/290055 NOSIG
Conditions at: UTAA (ASHGABAT , TM) observed 1700 UTC 17 February 2019
Temperature: 6.0°C (43°F)
Dewpoint: 4.0°C (39°F) [RH = 87%]
Pressure (altimeter): 29.94 inches Hg (1014.0 mb)
Winds: from the NNW (340 degrees) at 5 MPH (4 knots; 2.1 m/s)
Visibility: 6 miles ( 9 km)
Ceiling: 2300 feet AGL
Clouds: few clouds at 2300 feet AGL
overcast cloud deck at 2300 feet AGL
Weather: -SHRA  (light rain showers)

Forecast for: AMD
Text: TAF AMD UTAA 190239Z 1902/1924 28020KT 4000 BR BKN010 SCT020CB 530009
Forecast period: 0200 to 2200 UTC 19 February 2019
Forecast type: FROM: standard forecast or significant change
Winds: from the W (280 degrees) at 23 MPH (20 knots; 10.3 m/s)
Visibility: 2.49 miles (4.01 km)
Ceiling: 1000 feet AGL
Clouds: broken clouds at 1000 feet AGL
scattered clouds at 2000 feet AGL
Weather: BR  (mist)
Text: TEMPO 1902/1912 32022G32KT 2000 RA OVC004
Forecast period: 0200 to 1200 UTC 19 February 2019
Forecast type: TEMPORARY: The following changes expected for less than half the time period
Winds: from the NW (320 degrees) at 25 MPH (22 knots; 11.3 m/s)
gusting to 37 MPH (32 knots; 16.5 m/s)
Visibility: 1.24 miles (2.00 km)
Ceiling: 400 feet AGL
Clouds: overcast cloud deck at 400 feet AGL
Weather: RA  (moderate rain)
Text: TEMPO 1912/1922 34018G28KT
Forecast period: 1200 to 2200 UTC 19 February 2019
Forecast type: TEMPORARY: The following changes expected for less than half the time period
Winds: from the NNW (340 degrees) at 21 MPH (18 knots; 9.3 m/s)
gusting to 32 MPH (28 knots; 14.4 m/s)
Visibility: missing
Ceiling: unknown
Clouds: missing
Weather: no significant weather forecast for this period
Text: BECMG 1922/1924 04016KT
Forecast period: 2200 UTC 19 February 2019 to 0000 UTC 20 February 2019
Forecast type: BECOMING: Conditions expected to become as follows by 0000 UTC 20 February 2019
Winds: from the NE (40 degrees) at 18 MPH (16 knots; 8.2 m/s)
Visibility: 2.49 miles (4.01 km)
Ceiling: 1000 feet AGL
Clouds: broken clouds at 1000 feet AGL
scattered clouds at 2000 feet AGL
Weather: BR  (mist)